Time;durP1;ratioP1;P1;durP2;ratioP2;P2;SDS_P1;SDS_P2;PMS_P1;PMS_P2;Temp;Humidity;BMP_temperature;BMP_pressure;BME280_temperature;BME280_humidity;BME280_pressure;Samples;Min_cycle;Max_cycle;Signal;HPM_P1;HPM_P2
2021/10/10 00:00:16;;;;;;;;;2.50;2.00;;;;;13.59;66.02;102276.09;5044176;28;46744;-80
2021/10/10 00:02:41;;;;;;;;;1.25;1.25;;;;;13.38;65.77;102234.63;5042918;28;45953;-79
2021/10/10 00:05:07;;;;;;;;;5.75;4.00;;;;;13.46;66.14;102256.63;5042838;28;45399;-79
2021/10/10 00:07:33;;;;;;;;;2.25;0.50;;;;;13.63;65.71;102279.66;5044515;28;45303;-79
2021/10/10 00:09:58;;;;;;;;;2.25;1.75;;;;;13.50;66.05;102270.66;5042632;28;47283;-79
2021/10/10 00:12:24;;;;;;;;;2.00;2.00;;;;;13.30;66.79;102243.19;5056296;28;45208;-79
2021/10/10 00:14:49;;;;;;;;;2.00;1.00;;;;;13.59;66.35;102280.44;5062647;28;45315;-79
2021/10/10 00:17:15;;;;;;;;;4.25;2.50;;;;;13.48;66.52;102261.88;5064102;28;45183;-79
2021/10/10 00:19:40;;;;;;;;;0.50;0.50;;;;;13.54;66.05;102262.91;5062676;28;46879;-78
2021/10/10 00:22:06;;;;;;;;;2.00;2.00;;;;;13.49;66.42;102250.56;5062602;28;45946;-78
2021/10/10 00:24:32;;;;;;;;;1.75;1.00;;;;;13.38;65.88;102243.38;5062936;28;45436;-79
2021/10/10 00:26:57;;;;;;;;;0.50;0.50;;;;;13.41;65.93;102253.91;5063122;28;45403;-78
2021/10/10 00:29:23;;;;;;;;;1.00;1.00;;;;;13.59;66.04;102289.19;5063267;28;47195;-78
2021/10/10 00:31:48;;;;;;;;;2.00;2.00;;;;;13.36;66.16;102249.44;5063118;28;45466;-80
2021/10/10 00:34:13;;;;;;;;;2.00;2.00;;;;;13.07;65.86;102194.78;5064889;28;45298;-79
2021/10/10 00:36:39;;;;;;;;;3.25;1.00;;;;;13.60;65.93;102288.31;5063449;28;45632;-79
2021/10/10 00:39:04;;;;;;;;;2.50;0.00;;;;;13.62;65.93;102286.63;5062558;28;47032;-79
2021/10/10 00:41:30;;;;;;;;;2.00;2.00;;;;;13.62;66.12;102289.25;5062383;28;45547;-79
2021/10/10 00:43:55;;;;;;;;;1.00;1.00;;;;;13.45;65.88;102265.31;5062777;28;45347;-79
2021/10/10 00:46:20;;;;;;;;;3.75;1.00;;;;;13.36;65.85;102266.00;5064218;28;45244;-80
2021/10/10 00:48:46;;;;;;;;;1.25;1.00;;;;;13.33;66.10;102257.19;5062312;28;47439;-79
2021/10/10 00:51:12;;;;;;;;;2.25;1.00;;;;;13.52;65.81;102289.91;5063924;28;45243;-79
2021/10/10 00:53:38;;;;;;;;;2.75;2.00;;;;;13.37;66.02;102259.03;5062540;28;45286;-79
2021/10/10 00:56:05;;;;;;;;;0.75;0.75;;;;;13.50;65.74;102287.25;5063612;28;45409;-79
2021/10/10 00:58:31;;;;;;;;;1.00;1.00;;;;;13.25;65.89;102255.31;5062251;28;47965;-79
2021/10/10 01:00:56;;;;;;;;;3.75;2.00;;;;;13.36;66.33;102279.09;5063432;28;45400;-79
2021/10/10 01:03:23;;;;;;;;;2.50;2.50;;;;;13.10;66.17;102237.53;5062341;28;45319;-79
2021/10/10 01:05:49;;;;;;;;;2.00;2.00;;;;;13.35;66.25;102282.53;5062607;28;45387;-79
2021/10/10 01:08:16;;;;;;;;;2.25;1.25;;;;;13.03;65.97;102233.91;5062115;28;47398;-81
2021/10/10 01:10:44;;;;;;;;;2.25;1.00;;;;;13.12;65.82;102258.50;5063516;28;45319;-78
2021/10/10 01:13:09;;;;;;;;;4.00;1.50;;;;;13.18;66.24;102269.97;5043356;28;45369;-80
2021/10/10 01:15:35;;;;;;;;;2.00;1.00;;;;;13.10;66.57;102254.94;5043481;28;45189;-79
2021/10/10 01:18:00;;;;;;;;;3.75;1.75;;;;;13.14;66.46;102268.13;5041585;28;46955;-79
2021/10/10 01:20:27;;;;;;;;;2.00;2.00;;;;;13.21;66.47;102273.50;5041909;28;45769;-79
2021/10/10 01:22:54;;;;;;;;;1.25;1.25;;;;;13.18;66.29;102269.09;5041877;28;45465;-79
2021/10/10 01:25:19;;;;;;;;;3.00;1.75;;;;;13.26;66.18;102279.75;5042056;28;45432;-79
2021/10/10 01:27:45;;;;;;;;;1.50;1.50;;;;;13.21;66.55;102281.34;5041685;28;48104;-79
2021/10/10 01:30:10;;;;;;;;;0.50;0.00;;;;;13.10;66.47;102268.03;5041543;28;45388;-79
2021/10/10 01:32:37;;;;;;;;;3.00;3.00;;;;;13.14;66.49;102277.72;5041800;28;45338;-79
2021/10/10 01:35:03;;;;;;;;;0.25;0.25;;;;;12.57;66.63;102181.47;5043282;28;45473;-79
2021/10/10 01:37:28;;;;;;;;;2.00;2.00;;;;;13.05;66.63;102275.78;5041342;28;47503;-79
2021/10/10 01:39:54;;;;;;;;;2.00;2.00;;;;;12.78;66.58;102248.16;5041540;28;45619;-78
2021/10/10 01:42:19;;;;;;;;;3.00;3.00;;;;;12.79;67.09;102263.88;5041684;28;45527;-78
2021/10/10 01:44:45;;;;;;;;;2.00;1.25;;;;;12.78;67.05;102264.69;5041647;28;45225;-78
2021/10/10 01:47:10;;;;;;;;;2.25;1.00;;;;;12.61;67.15;102237.28;5041102;28;46979;-79
2021/10/10 01:49:37;;;;;;;;;3.00;2.00;;;;;12.80;67.25;102269.97;5041432;28;45810;-79
2021/10/10 01:52:03;;;;;;;;;3.50;2.00;;;;;12.50;67.24;102230.06;5042882;28;45332;-79
2021/10/10 01:54:29;;;;;;;;;1.25;1.00;;;;;12.75;67.37;102263.75;5043119;28;45553;-79
2021/10/10 01:56:54;;;;;;;;;2.00;1.50;;;;;12.55;67.04;102219.72;5042624;28;45322;-79
2021/10/10 01:59:19;;;;;;;;;2.75;2.50;;;;;12.72;67.00;102240.16;5041587;28;45608;-79
2021/10/10 02:01:44;;;;;;;;;1.75;1.75;;;;;12.54;66.99;102224.09;5042300;28;45329;-79
2021/10/10 02:04:10;;;;;;;;;1.25;1.25;;;;;12.70;67.02;102234.91;5043977;28;45334;-79
2021/10/10 02:06:35;;;;;;;;;2.25;0.50;;;;;12.60;67.17;102210.28;5041302;28;47250;-79
2021/10/10 02:09:00;;;;;;;;;1.00;1.00;;;;;12.82;67.06;102244.75;5042292;28;45280;-79
2021/10/10 02:11:26;;;;;;;;;1.25;1.00;;;;;12.87;66.93;102245.75;5046964;28;45472;-78
2021/10/10 02:13:51;;;;;;;;;1.75;1.75;;;;;12.76;66.88;102234.16;5061733;28;45238;-78
2021/10/10 02:16:16;;;;;;;;;2.00;1.00;;;;;12.78;67.17;102233.34;5062329;28;45346;-78
2021/10/10 02:18:42;;;;;;;;;1.00;1.00;;;;;12.55;66.88;102193.59;5062371;28;45330;-78
2021/10/10 02:21:07;;;;;;;;;2.00;2.00;;;;;12.76;66.74;102231.53;5062700;28;45620;-79
2021/10/10 02:23:33;;;;;;;;;0.75;0.75;;;;;12.90;66.69;102256.25;5061554;28;45477;-79
2021/10/10 02:25:58;;;;;;;;;1.75;1.75;;;;;12.88;66.88;102255.38;5062525;28;45566;-79
2021/10/10 02:28:23;;;;;;;;;2.00;2.00;;;;;12.59;66.96;102218.94;5061099;28;45200;-79
2021/10/10 02:30:49;;;;;;;;;3.00;1.00;;;;;12.39;67.18;102214.16;5061024;28;45360;-79
2021/10/10 02:33:17;;;;;;;;;2.00;2.00;;;;;12.55;66.95;102248.47;5062801;28;45432;-79
2021/10/10 02:35:43;;;;;;;;;2.75;2.75;;;;;12.39;67.21;102247.19;5060899;28;47746;-78
2021/10/10 02:38:09;;;;;;;;;5.00;3.00;;;;;12.21;67.43;102230.22;5062102;28;45304;-78
2021/10/10 02:40:35;;;;;;;;;2.75;2.75;;;;;12.29;67.92;102261.75;5061051;28;45385;-79
2021/10/10 02:43:00;;;;;;;;;2.25;2.25;;;;;12.19;67.78;102238.88;5062364;28;45422;-79
2021/10/10 02:45:26;;;;;;;;;5.00;2.75;;;;;11.92;67.79;102214.66;5062172;28;46245;-79
2021/10/10 02:47:51;;;;;;;;;1.50;1.50;;;;;12.14;68.38;102246.56;5060939;28;45335;-78
2021/10/10 02:50:16;;;;;;;;;1.50;1.50;;;;;12.21;68.39;102255.44;5060984;28;45208;-79
2021/10/10 02:52:42;;;;;;;;;1.75;1.00;;;;;12.02;67.93;102232.34;5061117;28;45242;-79
2021/10/10 02:55:07;;;;;;;;;3.75;1.75;;;;;11.94;68.24;102212.97;5060792;28;47416;-79
2021/10/10 02:57:33;;;;;;;;;1.50;1.50;;;;;11.98;68.23;102219.16;5062280;28;45507;-79
2021/10/10 02:59:58;;;;;;;;;3.25;1.75;;;;;12.06;67.84;102224.59;5060679;28;45268;-79
2021/10/10 03:02:23;;;;;;;;;4.00;2.50;;;;;11.89;68.05;102201.53;5062338;28;45204;-79
2021/10/10 03:04:49;;;;;;;;;4.50;1.75;;;;;11.51;67.73;102153.56;5060600;28;47291;-79
2021/10/10 03:07:14;;;;;;;;;1.75;1.75;;;;;12.10;67.76;102257.78;5062203;28;45224;-79
2021/10/10 03:09:39;;;;;;;;;3.00;1.00;;;;;11.99;68.17;102258.34;5060837;28;45279;-79
2021/10/10 03:12:05;;;;;;;;;2.75;1.50;;;;;12.09;68.29;102267.31;5052206;28;45209;-79
2021/10/10 03:14:30;;;;;;;;;2.50;1.50;;;;;11.76;68.59;102215.97;5040292;28;47345;-79
2021/10/10 03:16:56;;;;;;;;;1.00;1.00;;;;;11.95;68.73;102253.00;5040331;28;45239;-79
2021/10/10 03:19:21;;;;;;;;;2.00;2.00;;;;;11.70;68.51;102201.00;5044741;28;45466;-79
2021/10/10 03:21:47;;;;;;;;;3.00;2.00;;;;;11.67;69.13;102198.31;5044140;28;45445;-80
2021/10/10 03:24:12;;;;;;;;;3.00;2.00;;;;;11.95;68.52;102239.94;5045102;28;45411;-79
2021/10/10 03:26:37;;;;;;;;;2.00;1.00;;;;;11.92;68.45;102232.94;5043724;28;46167;-80
2021/10/10 03:29:03;;;;;;;;;1.75;1.75;;;;;12.07;68.75;102269.00;5044032;28;45511;-80
2021/10/10 03:31:29;;;;;;;;;3.50;2.00;;;;;12.01;68.70;102272.31;5046177;28;45364;-80
2021/10/10 03:33:54;;;;;;;;;4.00;3.50;;;;;11.62;68.38;102210.34;5044139;28;47413;-79
2021/10/10 03:36:20;;;;;;;;;6.25;4.25;;;;;11.69;69.03;102230.56;5043507;28;45382;-80
2021/10/10 03:38:45;;;;;;;;;1.75;1.75;;;;;11.87;69.05;102261.50;5045501;28;45271;-80
2021/10/10 03:41:12;;;;;;;;;2.50;1.75;;;;;11.62;69.17;102202.53;5043992;28;45327;-80
2021/10/10 03:43:38;;;;;;;;;2.25;2.25;;;;;11.86;68.92;102240.56;5044258;28;47010;-79
2021/10/10 03:46:04;;;;;;;;;1.75;1.75;;;;;11.98;68.55;102242.66;5043069;28;45418;-79
2021/10/10 03:48:29;;;;;;;;;2.50;2.00;;;;;11.88;68.97;102225.81;5043609;28;45272;-80
2021/10/10 03:50:55;;;;;;;;;2.50;2.00;;;;;12.09;68.72;102258.59;5045255;28;45155;-80
2021/10/10 03:53:23;;;;;;;;;2.25;1.25;;;;;11.90;68.64;102224.16;5043360;28;47442;-79
2021/10/10 03:55:51;;;;;;;;;1.25;1.25;;;;;12.20;68.38;102262.41;5043274;28;45348;-79
2021/10/10 03:58:17;;;;;;;;;4.00;2.50;;;;;12.11;68.37;102257.81;5043469;28;45197;-80
2021/10/10 04:00:42;;;;;;;;;3.00;2.00;;;;;12.21;68.30;102274.59;5043301;28;45324;-79
2021/10/10 04:03:10;;;;;;;;;4.00;3.00;;;;;12.21;68.17;102265.88;5043055;28;47024;-80
2021/10/10 04:05:39;;;;;;;;;2.00;1.75;;;;;12.15;68.32;102262.28;5043369;28;45351;-80
2021/10/10 04:08:05;;;;;;;;;3.00;1.00;;;;;11.95;68.39;102232.13;5043199;28;45343;-79
2021/10/10 04:10:30;;;;;;;;;2.25;1.50;;;;;12.19;68.48;102264.97;5044631;28;45502;-79
2021/10/10 04:12:56;;;;;;;;;2.50;2.50;;;;;12.08;68.17;102247.31;5059669;28;47248;-80
2021/10/10 04:15:22;;;;;;;;;4.25;2.50;;;;;11.87;68.09;102217.13;5062841;28;45327;-80
2021/10/10 04:17:47;;;;;;;;;2.00;1.00;;;;;11.89;68.38;102215.44;5064381;28;45351;-79
2021/10/10 04:20:15;;;;;;;;;8.75;3.00;;;;;12.22;68.28;102267.66;5063513;28;45578;-79
2021/10/10 04:22:42;;;;;;;;;2.00;2.00;;;;;11.91;68.37;102225.91;5062932;28;47216;-80
2021/10/10 04:25:08;;;;;;;;;2.00;1.50;;;;;12.08;68.10;102257.75;5062903;28;45366;-80
2021/10/10 04:27:35;;;;;;;;;1.75;1.75;;;;;12.10;68.13;102263.88;5063085;28;45437;-79
2021/10/10 04:30:05;;;;;;;;;2.50;2.50;;;;;12.11;68.12;102280.41;5061969;28;45425;-80
2021/10/10 04:32:30;;;;;;;;;3.00;3.00;;;;;11.84;68.05;102250.97;5062413;28;47562;-79
2021/10/10 04:34:56;;;;;;;;;3.75;2.75;;;;;11.82;68.41;102260.47;5062417;28;45304;-79
2021/10/10 04:37:21;;;;;;;;;1.25;1.25;;;;;11.84;68.32;102279.69;5064125;28;45378;-80
2021/10/10 04:39:47;;;;;;;;;3.00;2.00;;;;;11.48;68.37;102223.00;5062873;28;45369;-79
2021/10/10 04:42:12;;;;;;;;;6.50;3.75;;;;;11.64;68.38;102261.72;5062914;28;48100;-80
2021/10/10 04:44:37;;;;;;;;;2.75;2.75;;;;;11.67;68.71;102268.75;5062717;28;45389;-79
2021/10/10 04:47:04;;;;;;;;;3.25;3.25;;;;;11.38;68.66;102230.56;5060860;28;45362;-79
2021/10/10 04:49:30;;;;;;;;;7.50;4.00;;;;;11.52;68.92;102261.38;5051103;28;45424;-80
2021/10/10 04:51:55;;;;;;;;;4.75;2.75;;;;;11.51;68.71;102270.03;5063827;28;46606;-79
2021/10/10 04:54:20;;;;;;;;;3.75;2.25;;;;;11.19;68.70;102212.59;5048979;28;45327;-80
2021/10/10 04:56:46;;;;;;;;;2.00;1.75;;;;;11.15;69.06;102204.69;5043968;28;45371;-79
2021/10/10 04:59:11;;;;;;;;;4.75;3.00;;;;;11.43;68.95;102267.22;5044111;28;45375;-79
2021/10/10 05:01:36;;;;;;;;;4.00;2.00;;;;;11.23;68.75;102230.09;5042080;28;48173;-79
2021/10/10 05:04:02;;;;;;;;;3.25;2.75;;;;;11.49;69.01;102256.94;5059370;28;45309;-79
2021/10/10 05:06:27;;;;;;;;;0.00;0.00;;;;;11.62;68.81;102283.41;5056729;28;45259;-79
2021/10/10 05:08:52;;;;;;;;;1.75;1.75;;;;;11.63;68.89;102278.22;5059270;28;45259;-79
2021/10/10 05:11:18;;;;;;;;;2.50;0.75;;;;;11.47;68.79;102239.50;5056026;28;47951;-79
2021/10/10 05:13:43;;;;;;;;;1.25;1.25;;;;;11.52;68.82;102258.78;5049163;28;46054;-79
2021/10/10 05:16:08;;;;;;;;;1.50;1.50;;;;;11.56;68.30;102258.03;5063533;28;45295;-79
2021/10/10 05:18:34;;;;;;;;;2.25;1.00;;;;;11.32;68.64;102214.75;5063587;28;45172;-79
2021/10/10 05:20:59;;;;;;;;;1.50;1.50;;;;;11.50;68.83;102250.00;5063253;28;45301;-78
2021/10/10 05:23:24;;;;;;;;;1.75;1.50;;;;;11.53;68.43;102243.19;5050873;28;45284;-78
2021/10/10 05:25:50;;;;;;;;;3.00;1.00;;;;;11.73;68.49;102276.75;5042099;28;45366;-79
2021/10/10 05:28:16;;;;;;;;;0.75;0.75;;;;;11.75;68.27;102276.78;5042048;28;45530;-79
2021/10/10 05:30:41;;;;;;;;;2.75;1.25;;;;;11.71;68.25;102259.28;5041647;28;47546;-79
2021/10/10 05:33:07;;;;;;;;;5.00;1.75;;;;;11.75;68.14;102276.78;5041612;28;45802;-79
2021/10/10 05:35:33;;;;;;;;;2.00;2.00;;;;;11.81;68.51;102276.09;5043239;28;45490;-79
2021/10/10 05:37:58;;;;;;;;;7.50;3.00;;;;;11.66;68.31;102266.97;5043279;28;45295;-79
2021/10/10 05:40:23;;;;;;;;;0.25;0.25;;;;;11.43;68.58;102209.84;5044972;28;45661;-79
2021/10/10 05:42:49;;;;;;;;;1.50;1.50;;;;;11.72;68.08;102259.34;5056349;28;45496;-79
2021/10/10 05:45:14;;;;;;;;;2.50;2.50;;;;;11.73;67.89;102263.72;5062726;28;45401;-83
2021/10/10 05:47:39;;;;;;;;;3.00;2.00;;;;;11.88;67.99;102294.56;5062024;28;45335;-79
2021/10/10 05:50:06;;;;;;;;;5.25;4.00;;;;;11.17;68.03;102172.56;5062232;28;48193;-85
2021/10/10 05:52:34;;;;;;;;;4.50;3.25;;;;;11.35;68.02;102214.84;5056233;28;45269;-85
2021/10/10 05:55:00;;;;;;;;;2.50;2.50;;;;;11.58;67.94;102258.94;5044022;28;45479;-79
2021/10/10 06:00:11;;;;;;;;;3.00;2.25;;;;;11.79;68.02;102296.91;5046141;28;45470;-79
2021/10/10 06:02:36;;;;;;;;;4.25;1.25;;;;;11.70;67.70;102283.63;5048291;28;45527;-83
2021/10/10 06:05:02;;;;;;;;;4.00;2.00;;;;;11.77;67.97;102296.00;5051620;28;45575;-79
2021/10/10 06:07:28;;;;;;;;;3.00;2.00;;;;;11.71;68.14;102285.38;5058358;28;45264;-79
2021/10/10 06:09:54;;;;;;;;;1.50;1.25;;;;;11.68;68.11;102288.78;5060678;28;47241;-79
2021/10/10 06:12:20;;;;;;;;;3.00;1.50;;;;;11.72;67.91;102289.75;5057003;28;45524;-79
2021/10/10 06:14:48;;;;;;;;;1.75;1.25;;;;;11.71;68.05;102294.09;5060194;28;45278;-78
2021/10/10 06:17:15;;;;;;;;;2.00;2.00;;;;;11.55;67.76;102265.81;5051628;28;45576;-79
2021/10/10 06:19:40;;;;;;;;;3.00;3.00;;;;;11.81;67.57;102292.63;5053055;28;45280;-79
2021/10/10 06:22:06;;;;;;;;;1.75;1.25;;;;;11.59;67.82;102254.59;5056669;28;45338;-79
2021/10/10 06:24:31;;;;;;;;;3.50;1.25;;;;;11.87;67.56;102308.47;5050932;28;45269;-79
2021/10/10 06:26:56;;;;;;;;;2.00;2.00;;;;;11.47;67.66;102240.38;5055478;28;45552;-80
2021/10/10 06:29:22;;;;;;;;;4.00;3.00;;;;;11.80;67.53;102293.47;5061152;28;47123;-79
2021/10/10 06:31:47;;;;;;;;;6.75;2.75;;;;;11.87;67.14;102305.88;5061875;28;45318;-79
2021/10/10 06:34:12;;;;;;;;;1.25;1.25;;;;;11.74;67.22;102288.09;5063972;28;45462;-79
2021/10/10 06:36:38;;;;;;;;;4.25;2.00;;;;;11.88;67.46;102320.66;5064632;28;45363;-82
2021/10/10 06:39:03;;;;;;;;;1.50;1.50;;;;;11.72;67.29;102294.97;5063710;28;45340;-83
2021/10/10 06:41:28;;;;;;;;;5.75;2.00;;;;;11.59;67.20;102270.25;5063027;28;45247;-83
2021/10/10 06:43:54;;;;;;;;;1.25;1.25;;;;;11.67;67.09;102292.22;5061126;28;45260;-83
2021/10/10 06:46:19;;;;;;;;;6.00;6.00;;;;;11.51;67.05;102263.09;5061139;28;45331;-82
2021/10/10 06:48:45;;;;;;;;;6.00;2.75;;;;;11.89;67.31;102329.38;5051819;28;48194;-87
2021/10/10 06:51:10;;;;;;;;;2.00;2.00;;;;;11.20;67.27;102224.78;5061164;28;44682;-88
2021/10/10 06:53:36;;;;;;;;;1.75;0.75;;;;;11.61;67.31;102299.88;5070762;28;45377;-85
2021/10/10 06:56:04;;;;;;;;;3.25;3.25;;;;;11.40;67.06;102281.03;5074801;28;44870;-88
2021/10/10 06:58:33;;;;;;;;;5.00;2.50;;;;;11.61;67.23;102305.97;5076314;28;47314;-87
2021/10/10 07:00:59;;;;;;;;;5.75;3.75;;;;;11.08;67.27;102212.28;5056274;28;45338;-90
2021/10/10 07:03:25;;;;;;;;;5.00;3.50;;;;;11.42;67.21;102267.16;5049651;28;45386;-88
2021/10/10 07:05:50;;;;;;;;;3.25;3.25;;;;;11.81;67.63;102333.47;5046505;28;45494;-88
2021/10/10 07:08:15;;;;;;;;;3.00;1.00;;;;;11.65;67.54;102293.91;5054734;28;48215;-87
2021/10/10 07:10:41;;;;;;;;;2.75;2.75;;;;;11.39;67.38;102249.69;5064225;28;45029;-83
2021/10/10 07:13:06;;;;;;;;;3.75;3.25;;;;;11.49;66.94;102269.13;5051855;28;45244;-80
2021/10/10 07:15:33;;;;;;;;;3.00;3.00;;;;;11.64;66.76;102282.59;5062287;28;45584;-79
2021/10/10 07:18:01;;;;;;;;;3.25;1.50;;;;;11.74;66.92;102298.50;5045049;28;45549;-80
2021/10/10 07:20:50;;;;;;;;;2.00;2.00;;;;;11.95;66.88;102326.06;5058440;28;45292;-79
2021/10/10 07:23:44;;;;;;;;;3.75;3.00;;;;;11.88;66.83;102315.44;5055550;28;45540;-79
2021/10/10 07:26:09;;;;;;;;;2.75;2.25;;;;;11.85;67.09;102309.28;5063947;28;45835;-79
2021/10/10 07:28:34;;;;;;;;;3.25;2.50;;;;;12.13;67.04;102344.00;5064342;28;46237;-76
2021/10/10 07:31:01;;;;;;;;;8.50;3.00;;;;;11.98;66.73;102305.28;5050239;28;45326;-86
2021/10/10 07:33:26;;;;;;;;;2.25;2.25;;;;;12.20;66.49;102327.69;5048265;28;45473;-78
2021/10/10 07:35:51;;;;;;;;;1.50;1.25;;;;;12.37;66.36;102351.63;5061554;28;45153;-78
2021/10/10 07:38:17;;;;;;;;;7.50;3.75;;;;;12.26;66.29;102317.41;5065471;28;45276;-82
2021/10/10 07:40:43;;;;;;;;;1.75;1.75;;;;;12.40;66.26;102354.31;5063368;28;45314;-82
2021/10/10 07:43:08;;;;;;;;;2.75;1.50;;;;;12.19;65.86;102293.69;5061431;28;45303;-80
2021/10/10 07:45:40;;;;;;;;;2.25;1.50;;;;;12.54;65.95;102351.19;5055234;28;45436;-81
2021/10/10 07:48:06;;;;;;;;;4.50;2.50;;;;;12.16;65.78;102305.81;5045045;28;46335;-82
2021/10/10 07:50:31;;;;;;;;;3.50;1.00;;;;;11.99;66.03;102280.94;5044756;28;45536;-82
2021/10/10 07:52:56;;;;;;;;;0.75;0.75;;;;;12.31;65.90;102327.09;5046399;28;45252;-82
2021/10/10 07:55:22;;;;;;;;;2.50;1.75;;;;;12.25;65.80;102301.69;5063459;28;45237;-81
2021/10/10 07:57:47;;;;;;;;;3.50;2.50;;;;;12.42;65.49;102333.47;5068083;28;45372;-84
2021/10/10 08:00:13;;;;;;;;;2.25;2.25;;;;;12.59;65.70;102349.56;5072154;28;45470;-84
2021/10/10 08:02:49;;;;;;;;;5.75;3.50;;;;;12.49;65.51;102316.22;5054905;28;46789;-83
2021/10/10 08:05:15;;;;;;;;;5.25;2.25;;;;;12.33;64.74;102289.72;5054283;28;45412;-88
2021/10/10 08:07:40;;;;;;;;;5.00;3.25;;;;;12.02;64.66;102237.56;5052401;28;47169;-87
2021/10/10 08:10:06;;;;;;;;;4.00;2.25;;;;;12.45;64.80;102311.75;5055390;28;45422;-82
2021/10/10 08:12:31;;;;;;;;;2.00;2.00;;;;;12.69;65.12;102336.75;5055197;28;45537;-83
2021/10/10 08:14:57;;;;;;;;;3.50;3.50;;;;;12.40;64.80;102285.53;5054388;28;46730;-84
2021/10/10 08:17:22;;;;;;;;;3.50;3.50;;;;;12.92;64.90;102360.84;5056636;28;46392;-83
2021/10/10 08:19:47;;;;;;;;;6.25;3.50;;;;;12.87;64.58;102359.88;5045962;28;46179;-83
2021/10/10 08:22:14;;;;;;;;;4.50;3.00;;;;;12.93;65.03;102379.19;5049199;28;45488;-81
2021/10/10 08:24:39;;;;;;;;;2.75;2.75;;;;;12.81;64.73;102357.97;5064805;28;45313;-81
2021/10/10 08:27:04;;;;;;;;;2.00;2.00;;;;;12.96;64.85;102390.56;5047083;28;47230;-79
2021/10/10 08:29:30;;;;;;;;;2.00;2.00;;;;;12.70;64.80;102333.28;5063324;28;45601;-82
2021/10/10 08:31:55;;;;;;;;;4.25;3.00;;;;;12.64;65.18;102324.47;5050814;28;45350;-80
2021/10/10 08:34:21;;;;;;;;;3.25;3.00;;;;;12.89;64.72;102353.81;5051806;28;45486;-81
2021/10/10 08:36:46;;;;;;;;;2.50;2.50;;;;;13.04;64.43;102349.81;5054211;28;45297;-80
2021/10/10 08:39:12;;;;;;;;;3.25;3.00;;;;;12.91;64.60;102298.97;5048414;28;45224;-80
2021/10/10 08:41:39;;;;;;;;;4.00;4.00;;;;;13.14;64.31;102307.34;5057133;28;45331;-78
2021/10/10 08:44:07;;;;;;;;;1.50;1.50;;;;;13.33;64.15;102306.91;5053415;28;45449;-79
2021/10/10 08:46:38;;;;;;;;;4.50;4.50;;;;;13.58;63.96;102336.25;5047743;28;47671;-78
2021/10/10 08:49:03;;;;;;;;;2.00;2.00;;;;;13.56;63.92;102323.13;5043423;28;45512;-79
2021/10/10 08:51:33;;;;;;;;;4.00;2.50;;;;;13.76;63.91;102335.75;5051917;28;45522;-79
2021/10/10 08:53:58;;;;;;;;;3.25;3.00;;;;;13.91;63.29;102364.00;5046529;28;45423;-80
2021/10/10 08:56:24;;;;;;;;;4.25;3.00;;;;;13.77;63.46;102346.25;5049950;28;47988;-79
2021/10/10 08:58:49;;;;;;;;;2.75;2.75;;;;;13.97;62.99;102390.31;5048619;28;46019;-79
2021/10/10 09:01:17;;;;;;;;;4.50;2.50;;;;;13.74;63.26;102340.97;5048107;28;45453;-86
2021/10/10 09:03:49;;;;;;;;;3.00;3.00;;;;;14.00;62.65;102365.91;5041505;28;45454;-80
2021/10/10 09:06:15;;;;;;;;;2.50;2.00;;;;;13.78;62.13;102321.84;5044793;28;46887;-81
2021/10/10 09:08:40;;;;;;;;;6.00;3.75;;;;;13.67;62.32;102294.56;5042304;28;45578;-81
2021/10/10 09:11:06;;;;;;;;;4.00;2.00;;;;;14.14;62.09;102359.22;5051269;28;45567;-80
2021/10/10 09:13:37;;;;;;;;;3.50;2.25;;;;;13.65;62.31;102257.00;5056036;28;45304;-88
2021/10/10 09:16:06;;;;;;;;;1.25;1.25;;;;;14.44;61.98;102386.88;5039601;28;48421;-79
2021/10/10 09:18:38;;;;;;;;;2.00;2.00;;;;;14.61;62.07;102377.53;5042773;28;45293;-80
2021/10/10 09:21:24;;;;;;;;;4.50;4.00;;;;;14.75;61.52;102396.13;5056209;28;45555;-80
2021/10/10 09:23:54;;;;;;;;;3.00;2.50;;;;;14.85;61.06;102398.09;5050926;28;46348;-80
2021/10/10 09:26:21;;;;;;;;;2.00;2.00;;;;;14.93;60.81;102391.25;5051775;28;47153;-80
2021/10/10 09:28:48;;;;;;;;;3.00;2.00;;;;;14.78;60.69;102352.53;5049727;28;45498;-80
2021/10/10 09:31:14;;;;;;;;;4.00;2.00;;;;;14.70;60.10;102354.09;5046000;28;45572;-80
2021/10/10 09:33:55;;;;;;;;;3.00;2.75;;;;;15.14;60.07;102397.72;5056075;28;45515;-82
2021/10/10 09:36:24;;;;;;;;;3.75;2.25;;;;;15.28;59.88;102399.66;5049998;28;48524;-81
2021/10/10 09:38:58;;;;;;;;;2.25;2.25;;;;;15.00;60.02;102342.41;5050109;28;45556;-81
2021/10/10 09:41:34;;;;;;;;;1.00;1.00;;;;;15.29;59.83;102378.69;5048901;28;45548;-83
2021/10/10 09:46:38;;;;;;;;;1.25;1.25;;;;;15.07;59.06;102335.53;5042680;28;45375;-85
2021/10/10 09:49:33;;;;;;;;;1.75;1.00;;;;;15.23;57.95;102375.97;5044259;28;45513;-80
2021/10/10 09:52:07;;;;;;;;;1.75;1.75;;;;;15.40;58.09;102394.59;5048423;28;45209;-80
2021/10/10 09:54:56;;;;;;;;;1.00;1.00;;;;;15.43;58.25;102399.88;5057200;28;45502;-80
2021/10/10 09:57:23;;;;;;;;;2.00;2.00;;;;;15.25;58.26;102361.13;5048860;28;47077;-81
2021/10/10 09:59:49;;;;;;;;;2.00;2.00;;;;;15.53;57.88;102398.28;5045523;28;45441;-80
2021/10/10 10:02:16;;;;;;;;;1.00;1.00;;;;;15.52;57.55;102375.53;5043115;28;45453;-79
2021/10/10 10:04:46;;;;;;;;;2.50;2.50;;;;;15.70;57.82;102403.78;5047269;28;45648;-79
2021/10/10 10:07:13;;;;;;;;;1.50;1.50;;;;;15.53;56.94;102360.66;5044296;28;45303;-79
2021/10/10 10:09:39;;;;;;;;;2.25;2.25;;;;;15.73;57.10;102381.94;5038976;28;45429;-80
2021/10/10 10:12:07;;;;;;;;;1.00;1.00;;;;;15.78;57.21;102397.75;5043937;28;45710;-79
2021/10/10 10:14:32;;;;;;;;;0.50;0.50;;;;;15.88;57.03;102385.59;5042057;28;45450;-80
2021/10/10 10:17:02;;;;;;;;;0.75;0.25;;;;;15.82;56.88;102382.06;5038183;28;46460;-80
2021/10/10 10:19:28;;;;;;;;;1.25;1.00;;;;;15.99;56.71;102396.28;5040380;28;46188;-80
2021/10/10 10:21:55;;;;;;;;;1.00;1.00;;;;;15.84;56.50;102367.19;5042783;28;45483;-80
2021/10/10 10:24:22;;;;;;;;;1.75;1.75;;;;;15.78;56.61;102347.88;5043236;28;45605;-81
2021/10/10 10:26:49;;;;;;;;;4.50;2.75;;;;;15.93;56.36;102369.03;5046171;28;47154;-82
2021/10/10 10:29:18;;;;;;;;;0.75;0.75;;;;;16.06;56.60;102395.50;5044820;28;45522;-78
2021/10/10 10:31:46;;;;;;;;;2.75;2.75;;;;;16.09;56.22;102408.69;5057013;28;45479;-78
2021/10/10 10:34:27;;;;;;;;;3.00;2.00;;;;;16.17;55.80;102398.28;5044332;28;45450;-77
2021/10/10 10:37:09;;;;;;;;;4.00;0.25;;;;;16.11;55.77;102401.69;5050126;28;47149;-77
2021/10/10 10:39:47;;;;;;;;;2.50;1.25;;;;;15.96;54.41;102398.00;5068964;28;45450;-81
2021/10/10 10:42:25;;;;;;;;;0.00;0.00;;;;;16.06;55.63;102414.78;5052369;28;45373;-77
2021/10/10 10:44:51;;;;;;;;;1.50;1.50;;;;;16.04;55.35;102398.09;5052987;28;45612;-77
2021/10/10 10:47:36;;;;;;;;;2.25;2.25;;;;;16.31;54.50;102412.44;5046185;28;47989;-76
2021/10/10 10:50:04;;;;;;;;;2.00;2.00;;;;;16.22;54.79;102380.78;5055652;28;46280;-77
2021/10/10 10:52:38;;;;;;;;;0.00;0.00;;;;;16.14;54.27;102367.56;5057323;28;45522;-78
2021/10/10 10:55:21;;;;;;;;;1.00;1.00;;;;;16.44;53.30;102413.44;5054296;28;45499;-77
2021/10/10 10:58:00;;;;;;;;;0.25;0.25;;;;;16.20;53.63;102388.66;5046097;28;46250;-78
2021/10/10 11:00:54;;;;;;;;;1.00;1.00;;;;;16.28;54.25;102407.16;5054511;28;45352;-77
2021/10/10 11:03:23;;;;;;;;;2.75;1.00;;;;;16.03;53.55;102367.47;5049652;28;45513;-77
2021/10/10 11:05:49;;;;;;;;;2.50;1.25;;;;;16.34;53.28;102406.34;5051746;28;45488;-77
2021/10/10 11:08:30;;;;;;;;;1.00;1.00;;;;;16.39;53.71;102404.66;5044898;28;47203;-77
2021/10/10 11:11:04;;;;;;;;;1.75;0.00;;;;;16.47;53.16;102407.34;5043417;28;45170;-78
2021/10/10 11:13:43;;;;;;;;;0.50;0.50;;;;;16.54;53.32;102408.31;5046717;28;45335;-77
2021/10/10 11:16:14;;;;;;;;;2.50;1.00;;;;;16.48;53.29;102409.13;5052475;28;45352;-79
2021/10/10 11:18:49;;;;;;;;;1.25;1.25;;;;;16.27;53.31;102368.63;5059420;28;45541;-78
2021/10/10 11:21:23;;;;;;;;;1.00;0.25;;;;;16.57;52.96;102395.19;5045900;28;45338;-78
2021/10/10 11:23:51;;;;;;;;;2.00;2.00;;;;;16.46;53.07;102374.94;5054829;28;45432;-78
2021/10/10 11:26:16;;;;;;;;;1.25;1.25;;;;;16.56;53.23;102388.16;5052774;28;45518;-78
2021/10/10 11:28:47;;;;;;;;;0.00;0.00;;;;;16.27;52.91;102317.78;5060343;28;46459;-80